createdAt,value
2023-05-15T00:01:56.980Z,7.29
2023-05-15T00:04:24.902Z,7.18
2023-05-15T00:06:53.381Z,7.09
2023-05-15T00:09:21.211Z,7.02
2023-05-15T00:11:48.993Z,6.96
2023-05-15T00:14:16.838Z,6.88
2023-05-15T00:16:46.017Z,6.83
2023-05-15T00:19:14.688Z,6.81
2023-05-15T00:21:42.718Z,6.79
2023-05-15T00:24:10.499Z,6.83
2023-05-15T00:26:39.225Z,6.83
2023-05-15T00:29:07.049Z,6.84
2023-05-15T00:31:34.918Z,6.90
2023-05-15T00:34:04.455Z,6.90
2023-05-15T00:36:33.385Z,6.87
2023-05-15T00:39:04.768Z,6.83
2023-05-15T00:41:36.653Z,6.75
2023-05-15T00:44:04.570Z,6.68
2023-05-15T00:46:33.289Z,6.60
2023-05-15T00:49:13.390Z,6.47
2023-05-15T00:51:42.282Z,6.39
2023-05-15T00:54:11.395Z,6.33
2023-05-15T00:56:40.298Z,6.25
2023-05-15T00:59:09.320Z,6.20
2023-05-15T01:01:37.348Z,6.12
2023-05-15T01:04:06.700Z,6.00
2023-05-15T01:06:34.640Z,6.05
2023-05-15T01:09:04.203Z,6.01
2023-05-15T01:11:36.742Z,5.94
2023-05-15T01:14:06.201Z,5.94
2023-05-15T01:16:34.158Z,5.96
2023-05-15T01:19:02.097Z,6.01
2023-05-15T01:22:03.419Z,6.04
2023-05-15T01:24:51.233Z,6.06
2023-05-15T01:27:28.513Z,6.01
2023-05-15T01:30:04.304Z,5.99
2023-05-15T01:32:39.545Z,5.93
2023-05-15T01:35:20.648Z,5.95
2023-05-15T01:37:52.072Z,5.95
2023-05-15T01:40:23.942Z,5.92
2023-05-15T01:42:57.155Z,5.85
2023-05-15T01:45:25.991Z,5.77
2023-05-15T01:47:55.488Z,5.66
2023-05-15T01:50:24.012Z,5.56
2023-05-15T01:52:54.944Z,5.50
2023-05-15T01:55:24.930Z,5.44
2023-05-15T01:57:55.294Z,5.40
2023-05-15T02:00:24.524Z,5.38
2023-05-15T02:02:53.509Z,5.43
2023-05-15T02:05:22.185Z,5.43
2023-05-15T02:07:51.035Z,5.45
2023-05-15T02:10:19.683Z,5.45
2023-05-15T02:12:48.345Z,5.43
2023-05-15T02:15:18.327Z,5.41
2023-05-15T02:17:46.478Z,5.45
2023-05-15T02:20:14.385Z,5.47
2023-05-15T02:22:42.326Z,5.50
2023-05-15T02:25:10.516Z,5.58
2023-05-15T02:27:47.985Z,5.67
2023-05-15T02:30:25.969Z,5.66
2023-05-15T02:33:02.462Z,5.79
2023-05-15T02:35:39.616Z,5.83
2023-05-15T02:38:12.622Z,5.85
2023-05-15T02:40:41.582Z,5.90
2023-05-15T02:43:11.371Z,5.96
2023-05-15T02:45:42.000Z,5.98
2023-05-15T02:48:10.600Z,6.02
2023-05-15T02:50:38.409Z,6.02
2023-05-15T02:53:09.778Z,6.02
2023-05-15T02:55:39.592Z,6.04
2023-05-15T02:58:07.341Z,6.04
2023-05-15T03:00:35.185Z,6.07
2023-05-15T03:03:04.488Z,6.09
2023-05-15T03:05:32.425Z,6.12
2023-05-15T03:08:01.454Z,6.14
2023-05-15T03:10:29.209Z,6.15
2023-05-15T03:12:59.012Z,6.16
2023-05-15T03:15:27.314Z,6.18
2023-05-15T03:17:55.754Z,6.22
2023-05-15T03:20:24.941Z,6.26
2023-05-15T03:22:52.690Z,6.32
2023-05-15T03:25:21.147Z,6.42
2023-05-15T03:27:49.055Z,6.49
2023-05-15T03:30:16.823Z,6.58
2023-05-15T03:32:44.750Z,6.66
2023-05-15T03:35:12.930Z,6.74
2023-05-15T03:37:42.241Z,6.82
2023-05-15T03:40:10.701Z,6.90
2023-05-15T03:42:39.609Z,6.98
2023-05-15T03:45:09.750Z,7.07
2023-05-15T03:47:37.504Z,7.21
2023-05-15T03:50:05.952Z,7.46
2023-05-15T03:52:34.101Z,7.69
2023-05-15T03:55:03.471Z,7.97
2023-05-15T03:57:32.184Z,8.23
2023-05-15T03:59:59.961Z,8.52
2023-05-15T04:02:28.333Z,8.79
2023-05-15T04:04:56.162Z,9.03
2023-05-15T04:07:23.902Z,9.23
2023-05-15T04:09:51.705Z,9.42
2023-05-15T04:12:20.821Z,9.63
2023-05-15T04:14:48.552Z,9.97
2023-05-15T04:17:16.405Z,10.16
2023-05-15T04:19:45.958Z,10.30
2023-05-15T04:22:13.998Z,10.49
2023-05-15T04:24:47.800Z,10.60
2023-05-15T04:27:16.156Z,10.69
2023-05-15T04:29:45.709Z,10.84
2023-05-15T04:32:13.595Z,11.03
2023-05-15T04:34:42.564Z,11.22
2023-05-15T04:37:10.350Z,11.46
2023-05-15T04:39:38.028Z,11.59
2023-05-15T04:42:06.587Z,11.71
2023-05-15T04:44:34.463Z,11.73
2023-05-15T04:47:03.587Z,11.78
2023-05-15T04:49:31.401Z,11.94
2023-05-15T04:51:59.148Z,11.93
2023-05-15T04:54:26.947Z,11.96
2023-05-15T04:56:55.096Z,11.93
2023-05-15T04:59:25.879Z,11.95
2023-05-15T05:01:57.123Z,12.02
2023-05-15T05:04:26.496Z,12.00
2023-05-15T05:06:54.257Z,11.98
2023-05-15T05:09:22.196Z,12.07
2023-05-15T05:11:49.883Z,11.93
2023-05-15T05:14:17.722Z,11.91
2023-05-15T05:16:46.200Z,11.88
2023-05-15T05:19:14.093Z,11.95
2023-05-15T05:21:43.406Z,11.97
2023-05-15T05:24:11.734Z,12.10
2023-05-15T05:26:39.505Z,12.23
2023-05-15T05:29:07.253Z,12.29
2023-05-15T05:31:35.067Z,12.52
2023-05-15T05:34:02.772Z,12.61
2023-05-15T05:36:30.611Z,12.63
2023-05-15T05:38:59.708Z,12.63
2023-05-15T05:41:27.566Z,12.66
2023-05-15T05:43:55.533Z,12.70
2023-05-15T05:46:23.410Z,12.73
2023-05-15T05:48:51.454Z,12.80
2023-05-15T05:51:19.265Z,12.96
2023-05-15T05:53:47.022Z,13.08
2023-05-15T05:56:16.188Z,13.16
2023-05-15T05:58:44.211Z,13.37
2023-05-15T06:01:12.111Z,13.67
2023-05-15T06:03:40.440Z,14.16
2023-05-15T06:06:08.694Z,14.76
2023-05-15T06:08:40.501Z,15.15
2023-05-15T06:11:08.306Z,15.86
2023-05-15T06:13:40.593Z,16.41
2023-05-15T06:16:08.521Z,17.09
2023-05-15T06:18:36.329Z,17.61
2023-05-15T06:21:04.523Z,18.05
2023-05-15T06:23:32.260Z,17.90
2023-05-15T06:26:01.679Z,18.08
2023-05-15T06:28:29.477Z,18.49
2023-05-15T06:30:58.675Z,19.18
2023-05-15T06:33:26.474Z,19.26
2023-05-15T06:35:54.454Z,19.50
2023-05-15T06:38:22.326Z,19.39
2023-05-15T06:40:50.137Z,19.14
2023-05-15T06:43:17.999Z,18.96
2023-05-15T06:45:46.000Z,19.11
2023-05-15T06:48:15.177Z,19.40
2023-05-15T06:50:43.117Z,19.39
2023-05-15T06:53:12.354Z,19.55
2023-05-15T06:55:42.476Z,19.93
2023-05-15T06:58:10.271Z,19.47
2023-05-15T07:00:38.204Z,19.17
2023-05-15T07:03:06.304Z,19.41
2023-05-15T07:05:35.523Z,19.43
2023-05-15T07:08:03.240Z,19.67
2023-05-15T07:10:32.791Z,19.72
2023-05-15T07:13:00.868Z,19.73
2023-05-15T07:15:28.602Z,19.65
2023-05-15T07:17:56.563Z,19.56
2023-05-15T07:20:27.278Z,19.46
2023-05-15T07:22:58.404Z,19.76
2023-05-15T07:25:27.153Z,20.40
2023-05-15T07:27:55.124Z,20.76
2023-05-15T07:30:23.554Z,20.53
2023-05-15T07:32:51.505Z,20.55
2023-05-15T07:35:19.494Z,20.34
2023-05-15T07:37:47.529Z,19.95
2023-05-15T07:40:16.691Z,19.71
2023-05-15T07:42:45.570Z,19.33
2023-05-15T07:45:13.618Z,19.12
2023-05-15T07:47:45.807Z,18.91
2023-05-15T07:50:13.686Z,19.49
2023-05-15T07:52:41.491Z,20.15
2023-05-15T07:55:09.912Z,20.81
2023-05-15T07:57:39.891Z,21.23
2023-05-15T08:00:11.618Z,21.72
2023-05-15T08:02:39.911Z,22.08
2023-05-15T08:05:08.554Z,22.52
2023-05-15T08:07:39.460Z,22.41
2023-05-15T08:10:10.088Z,22.91
2023-05-15T08:12:46.239Z,22.75
2023-05-15T08:15:14.387Z,22.87
2023-05-15T08:17:42.421Z,22.94
2023-05-15T08:20:11.676Z,23.00
2023-05-15T08:22:39.444Z,23.02
2023-05-15T08:25:08.989Z,23.28
2023-05-15T08:27:36.798Z,23.50
2023-05-15T08:30:07.267Z,23.47
2023-05-15T08:32:35.074Z,23.69
2023-05-15T08:35:02.950Z,23.91
2023-05-15T08:37:30.741Z,24.17
2023-05-15T08:39:58.501Z,23.54
2023-05-15T08:42:34.429Z,23.89
2023-05-15T08:45:02.673Z,24.38
2023-05-15T08:47:36.428Z,24.79
2023-05-15T08:50:08.463Z,25.14
2023-05-15T08:52:36.789Z,25.22
2023-05-15T08:55:05.245Z,25.57
2023-05-15T08:57:34.699Z,26.34
2023-05-15T09:00:06.494Z,26.95
2023-05-15T09:02:37.432Z,26.69
2023-05-15T09:05:06.270Z,26.82
2023-05-15T09:07:34.993Z,27.00
2023-05-15T09:10:04.718Z,26.88
2023-05-15T09:12:34.994Z,26.90
2023-05-15T09:15:14.162Z,26.55
2023-05-15T09:17:43.587Z,26.77
2023-05-15T09:20:27.854Z,26.57
2023-05-15T09:22:56.057Z,26.65
2023-05-15T09:25:38.641Z,26.99
2023-05-15T09:28:10.821Z,27.63
2023-05-15T09:30:39.350Z,27.65
2023-05-15T09:35:39.386Z,28.80
2023-05-15T09:38:10.699Z,28.66
2023-05-15T09:40:39.971Z,28.10
2023-05-15T09:43:07.767Z,27.68
2023-05-15T09:45:35.555Z,27.87
2023-05-15T09:48:06.657Z,27.39
2023-05-15T09:50:37.694Z,27.45
2023-05-15T09:53:06.233Z,27.13
2023-05-15T09:55:35.214Z,26.20
2023-05-15T09:58:07.332Z,26.29
2023-05-15T10:00:35.547Z,26.82
2023-05-15T10:03:04.431Z,27.08
2023-05-15T10:05:43.132Z,27.58
2023-05-15T10:08:14.988Z,27.95
2023-05-15T10:10:43.356Z,27.19
2023-05-15T10:13:12.250Z,27.00
2023-05-15T10:15:41.053Z,27.63
2023-05-15T10:18:09.476Z,27.48
2023-05-15T10:20:38.553Z,27.93
2023-05-15T10:23:07.510Z,27.91
2023-05-15T10:25:42.947Z,27.56
2023-05-15T10:28:19.030Z,27.41
2023-05-15T10:30:47.901Z,26.92
2023-05-15T10:33:16.494Z,26.01
2023-05-15T10:35:44.903Z,26.64
2023-05-15T10:38:13.706Z,26.09
2023-05-15T10:40:43.250Z,25.67
2023-05-15T10:43:12.551Z,25.17
2023-05-15T10:45:40.766Z,24.90
2023-05-15T10:48:12.402Z,24.93
2023-05-15T10:50:40.382Z,25.07
2023-05-15T10:53:10.171Z,24.81
2023-05-15T10:55:38.287Z,24.49
2023-05-15T10:58:11.453Z,24.04
2023-05-15T11:00:43.994Z,24.33
2023-05-15T11:03:15.503Z,24.15
2023-05-15T11:06:08.801Z,24.05
2023-05-15T11:08:37.299Z,24.03
2023-05-15T11:11:05.978Z,23.73
2023-05-15T11:14:18.507Z,23.52
2023-05-15T11:17:05.140Z,22.92
2023-05-15T11:19:55.015Z,23.03
2023-05-15T11:22:28.417Z,22.70
2023-05-15T11:24:59.346Z,22.29
2023-05-15T11:27:30.071Z,21.95
2023-05-15T11:30:12.122Z,21.71
2023-05-15T11:32:51.729Z,21.49
2023-05-15T11:35:21.678Z,21.46
2023-05-15T11:37:53.907Z,21.29
2023-05-15T11:40:24.580Z,21.38
2023-05-15T11:43:04.314Z,21.40
2023-05-15T11:45:33.168Z,21.65
2023-05-15T11:48:04.136Z,21.85
2023-05-15T11:50:33.915Z,22.16
2023-05-15T11:53:06.879Z,22.41
2023-05-15T11:55:36.180Z,22.34
2023-05-15T11:58:05.203Z,22.43
2023-05-15T12:00:33.066Z,22.39
2023-05-15T12:03:03.840Z,22.36
2023-05-15T12:05:32.040Z,22.08
2023-05-15T12:08:00.014Z,22.10
2023-05-15T12:10:28.234Z,21.93
2023-05-15T12:12:56.452Z,21.90
2023-05-15T12:15:24.449Z,21.94
2023-05-15T12:17:52.290Z,22.25
2023-05-15T12:20:23.342Z,22.07
2023-05-15T12:22:51.205Z,22.14
2023-05-15T12:25:18.987Z,22.52
2023-05-15T12:27:46.950Z,22.65
2023-05-15T12:30:15.602Z,22.89
2023-05-15T12:32:43.863Z,23.07
2023-05-15T12:35:12.930Z,23.26
2023-05-15T12:37:42.886Z,23.41
2023-05-15T12:40:12.059Z,23.47
2023-05-15T12:42:41.584Z,23.57
2023-05-15T12:45:16.433Z,23.50
2023-05-15T12:47:46.502Z,23.11
2023-05-15T12:50:16.719Z,23.30
2023-05-15T12:52:51.829Z,23.69
2023-05-15T12:55:23.140Z,24.52
2023-05-15T12:57:51.205Z,25.17
2023-05-15T13:00:21.470Z,25.16
2023-05-15T13:02:51.684Z,25.24
2023-05-15T13:05:19.779Z,25.71
2023-05-15T13:07:48.995Z,26.09
2023-05-15T13:10:16.964Z,26.59
2023-05-15T13:12:47.332Z,27.50
2023-05-15T13:15:27.476Z,28.19
2023-05-15T13:18:00.019Z,28.23
2023-05-15T13:20:29.061Z,27.26
2023-05-15T13:22:58.254Z,26.83
2023-05-15T13:25:26.162Z,27.35
2023-05-15T13:27:54.397Z,27.27
2023-05-15T13:30:22.252Z,26.36
2023-05-15T13:32:50.232Z,25.52
2023-05-15T13:35:18.018Z,26.36
2023-05-15T13:37:45.890Z,26.54
2023-05-15T13:40:15.517Z,26.09
2023-05-15T13:42:44.616Z,25.93
2023-05-15T13:45:13.963Z,26.75
2023-05-15T13:47:42.249Z,27.31
2023-05-15T13:50:11.549Z,27.98
2023-05-15T13:52:40.378Z,27.67
2023-05-15T13:55:10.633Z,27.15
2023-05-15T13:57:40.889Z,25.47
2023-05-15T14:00:12.250Z,24.53
2023-05-15T14:02:41.187Z,24.74
2023-05-15T14:05:09.985Z,25.47
2023-05-15T14:07:37.977Z,25.63
2023-05-15T14:10:07.108Z,26.02
2023-05-15T14:12:35.630Z,25.04
2023-05-15T14:15:05.278Z,25.42
2023-05-15T14:17:33.277Z,25.61
2023-05-15T14:20:01.336Z,25.42
2023-05-15T14:22:29.098Z,24.79
2023-05-15T14:24:56.891Z,24.18
2023-05-15T14:27:24.707Z,24.34
2023-05-15T14:29:52.541Z,24.06
2023-05-15T14:32:21.747Z,23.88
2023-05-15T14:34:49.604Z,24.30
2023-05-15T14:37:17.631Z,25.09
2023-05-15T14:39:45.437Z,25.57
2023-05-15T14:42:13.224Z,25.27
2023-05-15T14:44:41.012Z,25.11
2023-05-15T14:47:09.972Z,24.58
2023-05-15T14:49:39.176Z,24.70
2023-05-15T14:52:09.862Z,25.39
2023-05-15T14:54:40.366Z,26.07
2023-05-15T14:57:08.442Z,26.76
2023-05-15T14:59:36.543Z,27.58
2023-05-15T15:02:04.504Z,26.47
2023-05-15T15:04:34.437Z,25.61
2023-05-15T15:07:06.114Z,25.33
2023-05-15T15:09:33.881Z,24.96
2023-05-15T15:12:01.668Z,24.70
2023-05-15T15:14:30.413Z,24.79
2023-05-15T15:16:58.167Z,25.03
2023-05-15T15:19:26.047Z,24.78
2023-05-15T15:21:53.930Z,24.50
2023-05-15T15:24:24.619Z,24.00
2023-05-15T15:26:52.354Z,23.47
2023-05-15T15:29:20.129Z,22.93
2023-05-15T15:31:47.849Z,22.75
2023-05-15T15:34:15.922Z,22.48
2023-05-15T15:36:43.768Z,22.44
2023-05-15T15:39:13.078Z,22.39
2023-05-15T15:41:42.340Z,22.01
2023-05-15T15:44:10.064Z,21.95
2023-05-15T15:46:37.920Z,22.05
2023-05-15T15:49:06.821Z,21.91
2023-05-15T15:51:34.850Z,21.83
2023-05-15T15:54:02.790Z,21.93
2023-05-15T15:56:30.673Z,22.35
2023-05-15T15:58:59.816Z,22.75
2023-05-15T16:01:28.374Z,23.16
2023-05-15T16:03:56.561Z,22.94
2023-05-15T16:06:24.419Z,23.27
2023-05-15T16:08:52.475Z,23.39
2023-05-15T16:11:21.466Z,23.83
2023-05-15T16:13:49.232Z,24.29
2023-05-15T16:16:18.537Z,24.18
2023-05-15T16:18:46.535Z,23.46
2023-05-15T16:21:14.673Z,23.11
2023-05-15T16:23:42.695Z,23.03
2023-05-15T16:26:11.278Z,22.66
2023-05-15T16:28:39.364Z,22.25
2023-05-15T16:31:07.384Z,21.77
2023-05-15T16:33:36.668Z,21.53
2023-05-15T16:36:05.216Z,21.16
2023-05-15T16:38:33.515Z,20.90
2023-05-15T16:41:02.208Z,20.58
2023-05-15T16:43:29.972Z,20.13
2023-05-15T16:45:59.066Z,20.00
2023-05-15T16:48:27.946Z,20.05
2023-05-15T16:50:57.380Z,19.95
2023-05-15T16:53:25.221Z,20.02
2023-05-15T16:55:53.993Z,19.86
2023-05-15T16:58:21.925Z,19.75
2023-05-15T17:00:50.262Z,19.79
2023-05-15T17:03:19.082Z,19.68
2023-05-15T17:05:47.414Z,19.59
2023-05-15T17:08:16.701Z,19.59
2023-05-15T17:10:44.676Z,19.60
2023-05-15T17:13:12.500Z,19.44
2023-05-15T17:15:40.313Z,19.35
2023-05-15T17:18:08.386Z,19.02
2023-05-15T17:20:36.282Z,18.92
2023-05-15T17:23:04.064Z,18.83
2023-05-15T17:25:33.287Z,18.74
2023-05-15T17:28:01.321Z,18.63
2023-05-15T17:30:29.314Z,18.55
2023-05-15T17:32:57.239Z,18.67
2023-05-15T17:35:25.339Z,18.55
2023-05-15T17:37:53.289Z,18.50
2023-05-15T17:40:21.102Z,18.39
2023-05-15T17:42:50.243Z,18.26
2023-05-15T17:45:18.273Z,18.34
2023-05-15T17:47:46.050Z,18.23
2023-05-15T17:50:13.960Z,18.10
2023-05-15T17:52:41.749Z,18.05
2023-05-15T17:55:10.221Z,17.98
2023-05-15T17:57:37.979Z,17.86
2023-05-15T18:00:08.791Z,17.74
2023-05-15T18:02:36.611Z,17.70
2023-05-15T18:05:04.554Z,17.62
2023-05-15T18:07:32.394Z,17.56
2023-05-15T18:10:00.328Z,17.49
2023-05-15T18:12:28.107Z,17.37
2023-05-15T18:14:55.848Z,17.34
2023-05-15T18:17:25.350Z,17.18
2023-05-15T18:19:53.156Z,17.13
2023-05-15T18:22:21.144Z,17.04
2023-05-15T18:24:49.017Z,16.94
2023-05-15T18:27:16.855Z,16.87
2023-05-15T18:29:45.743Z,16.80
2023-05-15T18:32:13.624Z,16.83
2023-05-15T18:34:44.586Z,16.61
2023-05-15T18:37:14.738Z,16.47
2023-05-15T18:39:44.228Z,16.47
2023-05-15T18:42:11.962Z,16.34
2023-05-15T18:44:39.990Z,16.24
2023-05-15T18:47:08.142Z,16.14
2023-05-15T18:49:36.122Z,16.10
2023-05-15T18:52:05.621Z,15.98
2023-05-15T18:54:33.596Z,15.92
2023-05-15T18:57:01.487Z,15.76
2023-05-15T18:59:30.054Z,15.79
2023-05-15T19:01:58.122Z,15.73
2023-05-15T19:04:26.125Z,15.57
2023-05-15T19:06:53.835Z,15.40
2023-05-15T19:09:23.004Z,15.29
2023-05-15T19:11:52.449Z,15.22
2023-05-15T19:14:20.294Z,15.04
2023-05-15T19:16:48.175Z,15.02
2023-05-15T19:19:16.117Z,14.94
2023-05-15T19:21:43.886Z,14.84
2023-05-15T19:24:11.806Z,14.74
2023-05-15T19:26:41.026Z,14.81
2023-05-15T19:29:08.735Z,14.66
2023-05-15T19:31:37.394Z,14.46
2023-05-15T19:34:05.888Z,14.37
2023-05-15T19:36:37.420Z,14.51
2023-05-15T19:39:05.612Z,14.44
2023-05-15T19:41:33.364Z,14.38
2023-05-15T19:44:02.667Z,14.38
2023-05-15T19:46:32.147Z,14.40
2023-05-15T19:48:59.942Z,14.36
2023-05-15T19:51:27.888Z,14.24
2023-05-15T19:53:56.681Z,14.25
2023-05-15T19:56:25.344Z,14.12
2023-05-15T19:58:53.204Z,14.03
2023-05-15T20:01:22.333Z,14.04
2023-05-15T20:03:50.315Z,13.91
2023-05-15T20:06:18.112Z,13.80
2023-05-15T20:08:46.021Z,13.71
2023-05-15T20:11:14.371Z,13.52
2023-05-15T20:13:42.404Z,13.60
2023-05-15T20:16:12.828Z,13.53
2023-05-15T20:18:42.097Z,13.39
2023-05-15T20:21:09.899Z,13.30
2023-05-15T20:23:37.690Z,13.41
2023-05-15T20:26:05.576Z,13.39
2023-05-15T20:28:33.318Z,13.25
2023-05-15T20:31:01.617Z,13.04
2023-05-15T20:33:29.497Z,12.79
2023-05-15T20:36:00.246Z,12.83
2023-05-15T20:38:28.372Z,12.76
2023-05-15T20:40:57.627Z,12.59
2023-05-15T20:43:25.445Z,12.45
2023-05-15T20:45:53.488Z,12.34
2023-05-15T20:48:21.388Z,12.27
2023-05-15T20:50:49.168Z,12.21
2023-05-15T20:53:18.267Z,12.13
2023-05-15T20:55:46.645Z,12.09
2023-05-15T20:58:14.531Z,11.99
2023-05-15T21:00:42.281Z,11.83
2023-05-15T21:03:11.034Z,11.66
2023-05-15T21:05:38.928Z,11.52
2023-05-15T21:08:06.814Z,11.42
2023-05-15T21:10:35.976Z,11.31
2023-05-15T21:13:03.896Z,11.17
2023-05-15T21:15:31.601Z,11.04
2023-05-15T21:17:59.423Z,10.90
2023-05-15T21:20:27.613Z,10.76
2023-05-15T21:22:55.568Z,10.68
2023-05-15T21:25:23.770Z,10.57
2023-05-15T21:27:52.897Z,10.42
2023-05-15T21:30:20.878Z,10.34
2023-05-15T21:32:48.684Z,10.26
2023-05-15T21:35:16.720Z,10.18
2023-05-15T21:37:44.498Z,10.11
2023-05-15T21:40:13.875Z,10.01
2023-05-15T21:42:42.047Z,9.93
2023-05-15T21:45:11.762Z,9.83
2023-05-15T21:47:39.743Z,9.79
2023-05-15T21:50:08.267Z,9.76
2023-05-15T21:52:36.072Z,9.74
2023-05-15T21:55:04.279Z,9.70
2023-05-15T21:57:32.033Z,9.65
2023-05-15T21:59:59.880Z,9.56
2023-05-15T22:02:29.304Z,9.49
2023-05-15T22:04:57.296Z,9.45
2023-05-15T22:07:25.095Z,9.40
2023-05-15T22:09:53.188Z,9.34
2023-05-15T22:12:21.087Z,9.32
2023-05-15T22:14:58.565Z,9.28
2023-05-15T22:17:29.145Z,9.25
2023-05-15T22:20:06.745Z,9.17
2023-05-15T22:22:34.836Z,9.11
2023-05-15T22:25:02.729Z,9.09
2023-05-15T22:27:30.564Z,9.04
2023-05-15T22:32:43.998Z,8.95
2023-05-15T22:35:13.898Z,8.92
2023-05-15T22:37:42.206Z,8.93
2023-05-15T22:40:11.883Z,8.82
2023-05-15T22:42:39.607Z,8.97
2023-05-15T22:45:08.572Z,8.98
2023-05-15T22:47:36.380Z,9.03
2023-05-15T22:50:04.543Z,9.06
2023-05-15T22:52:33.642Z,9.08
2023-05-15T22:55:01.554Z,9.11
2023-05-15T22:57:29.333Z,9.13
2023-05-15T22:59:57.205Z,9.18
2023-05-15T23:02:25.095Z,9.23
2023-05-15T23:04:52.885Z,9.27
2023-05-15T23:07:20.611Z,9.27
2023-05-15T23:09:49.931Z,9.30
2023-05-15T23:12:17.694Z,9.26
2023-05-15T23:14:45.436Z,9.24
2023-05-15T23:17:13.559Z,9.13
2023-05-15T23:19:41.412Z,9.00
2023-05-15T23:22:09.215Z,9.08
2023-05-15T23:24:37.057Z,9.02
2023-05-15T23:27:06.724Z,8.96
2023-05-15T23:29:34.707Z,8.91
2023-05-15T23:32:02.545Z,8.84
2023-05-15T23:34:30.700Z,8.73
2023-05-15T23:36:58.472Z,8.65
2023-05-15T23:39:26.567Z,8.58
2023-05-15T23:41:54.357Z,8.53
2023-05-15T23:44:23.507Z,8.52
2023-05-15T23:46:51.398Z,8.51
2023-05-15T23:49:19.557Z,8.50
2023-05-15T23:51:47.361Z,8.50
2023-05-15T23:54:15.237Z,8.46
2023-05-15T23:56:43.056Z,8.45
2023-05-15T23:59:11.016Z,8.43
